Time;durP1;ratioP1;P1;durP2;ratioP2;P2;SDS_P1;SDS_P2;PMS_P1;PMS_P2;Temp;Humidity;BMP_temperature;BMP_pressure;BME280_temperature;BME280_humidity;BME280_pressure;Samples;Min_cycle;Max_cycle;Signal;HPM_P1;HPM_P2
2021/05/18 00:00:49;;;;;;;6.18;4.13;;;8.90;99.90;;;7.32;95.37;100703.41;3492542;40;103527;-40
2021/05/18 00:03:18;;;;;;;6.38;4.20;;;8.90;99.90;;;7.33;95.33;100702.38;3507901;40;103250;-41
2021/05/18 00:05:52;;;;;;;8.73;4.70;;;8.90;99.90;;;7.33;95.36;100700.50;3500802;40;102295;-40
2021/05/18 00:08:25;;;;;;;7.32;4.65;;;8.90;99.90;;;7.34;95.39;100696.75;3492533;40;103230;-40
2021/05/18 00:13:42;;;;;;;9.85;4.85;;;8.90;99.90;;;7.39;95.85;100704.31;3493225;40;102402;-40
2021/05/18 00:16:12;;;;;;;11.02;5.00;;;9.00;99.90;;;7.44;95.91;100706.47;3500901;40;102512;-40
2021/05/18 00:18:40;;;;;;;8.82;4.90;;;9.00;99.90;;;7.47;95.93;100700.63;3500553;40;105380;-40
2021/05/18 00:21:09;;;;;;;8.65;5.28;;;9.00;99.90;;;7.51;96.22;100698.34;3492800;40;105370;-40
2021/05/18 00:23:38;;;;;;;8.65;4.60;;;9.00;99.90;;;7.54;96.11;100698.81;3500670;40;104081;-40
2021/05/18 00:26:08;;;;;;;8.15;4.95;;;9.10;99.90;;;7.59;96.34;100699.06;3492892;40;103319;-40
2021/05/18 00:28:37;;;;;;;8.93;5.35;;;9.10;99.90;;;7.61;96.31;100696.97;3492613;40;103231;-40
2021/05/18 00:31:06;;;;;;;8.27;5.18;;;9.20;99.90;;;7.62;96.21;100706.81;3500780;40;102311;-40
2021/05/18 00:33:35;;;;;;;7.97;5.00;;;9.20;99.90;;;7.63;96.29;100697.63;3500220;40;103324;-40
2021/05/18 00:36:04;;;;;;;7.65;4.45;;;9.20;99.90;;;7.65;96.32;100696.59;3501023;40;103746;-40
2021/05/18 00:38:32;;;;;;;8.98;5.00;;;9.20;99.90;;;7.61;96.42;100686.13;3500736;40;103282;-40
2021/05/18 00:41:01;;;;;;;;;;;9.20;99.90;;;7.67;96.34;100694.50;3493179;40;105185;-40
2021/05/18 00:43:30;;;;;;;10.20;5.10;;;9.20;99.90;;;7.68;96.52;100702.47;3500790;40;102757;-40
2021/05/18 00:45:58;;;;;;;10.85;5.70;;;9.20;99.90;;;7.70;96.60;100694.16;3508735;40;102462;-40
2021/05/18 00:48:27;;;;;;;10.23;5.63;;;9.30;99.90;;;7.73;96.54;100693.75;3501391;40;102167;-40
2021/05/18 00:51:01;;;;;;;8.77;5.45;;;9.30;99.90;;;7.76;96.45;100694.19;3493103;40;102619;-39
2021/05/18 00:53:30;;;;;;;8.93;6.07;;;9.30;99.90;;;7.76;96.57;100690.63;3516691;40;102222;-40
2021/05/18 00:58:39;;;;;;;9.70;5.72;;;9.30;99.90;;;7.83;96.52;100688.81;3492423;40;103146;-40
2021/05/18 01:01:14;;;;;;;9.60;5.97;;;9.40;99.90;;;7.86;96.78;100693.84;3500201;40;102320;-40
2021/05/18 01:03:48;;;;;;;10.88;5.85;;;9.40;99.90;;;7.89;96.50;100698.88;3499471;40;103347;-40
2021/05/18 01:09:09;;;;;;;9.25;5.85;;;9.40;99.90;;;7.94;96.94;100694.72;3508956;40;103121;-40
2021/05/18 01:11:43;;;;;;;15.43;7.90;;;9.50;99.90;;;7.98;96.54;100707.72;3500871;40;103354;-39
2021/05/18 01:14:17;;;;;;;16.15;9.15;;;9.50;99.90;;;8.06;96.16;100712.16;3637899;22;103830;-38
2021/05/18 01:16:51;;;;;;;15.23;8.88;;;9.50;99.90;;;8.04;95.92;100717.78;3517677;40;102267;-39
2021/05/18 01:19:24;;;;;;;13.63;8.75;;;9.60;99.90;;;8.08;96.20;100715.53;3493043;40;105023;-39
2021/05/18 01:21:56;;;;;;;16.58;9.23;;;9.60;99.90;;;8.09;95.65;100717.19;3500826;40;104668;-38
2021/05/18 01:24:25;;;;;;;16.20;10.15;;;9.60;99.90;;;8.10;95.73;100715.34;3509493;40;105179;-38
2021/05/18 01:26:55;;;;;;;19.17;10.95;;;9.60;99.90;;;8.15;95.68;100705.53;3500396;40;102220;-38
2021/05/18 01:29:24;;;;;;;17.90;10.55;;;9.60;99.90;;;8.13;95.59;100710.31;3493299;40;103347;-38
2021/05/18 01:31:53;;;;;;;16.75;10.15;;;9.60;99.90;;;8.16;95.47;100712.63;3492879;40;102632;-38
2021/05/18 01:34:22;;;;;;;17.85;11.00;;;9.60;99.90;;;8.16;95.84;100712.63;3492776;40;102262;-38
2021/05/18 01:36:51;;;;;;;14.75;10.75;;;9.70;99.90;;;8.11;95.97;100706.97;3500672;40;102782;-38
2021/05/18 01:44:39;;;;;;;15.75;10.35;;;9.60;99.90;;;8.11;96.20;100715.13;3501169;40;102178;-39
2021/05/18 01:47:10;;;;;;;16.50;10.70;;;9.60;99.90;;;8.12;96.31;100713.25;3500861;40;103607;-39
2021/05/18 01:49:42;;;;;;;18.00;10.25;;;9.70;99.90;;;8.15;96.51;100712.84;3493990;40;103980;-39
2021/05/18 01:52:10;;;;;;;16.70;10.95;;;9.70;99.90;;;8.17;96.58;100721.66;3492671;40;102806;-38
2021/05/18 01:54:39;;;;;;;17.42;10.85;;;9.70;99.90;;;8.17;96.64;100713.50;3484326;40;105919;-39
2021/05/18 01:59:54;;;;;;;16.85;11.18;;;9.70;99.90;;;8.17;96.77;100716.22;3509032;40;102221;-39
2021/05/18 02:02:25;;;;;;;19.45;11.52;;;9.70;99.90;;;8.19;96.61;100719.56;3492150;40;102409;-38
2021/05/18 02:05:07;;;;;;;18.02;10.75;;;9.70;99.90;;;8.16;96.91;100712.63;3500651;40;102265;-39
2021/05/18 02:07:47;;;;;;;20.45;11.90;;;9.70;99.90;;;8.20;96.84;100715.81;3507726;40;102686;-39
2021/05/18 02:10:20;;;;;;;15.90;10.60;;;9.70;99.90;;;8.21;96.79;100721.03;3508821;40;103640;-39
2021/05/18 02:12:57;;;;;;;20.40;11.77;;;9.70;99.90;;;8.24;96.99;100727.13;3515965;40;103344;-39
2021/05/18 02:20:54;;;;;;;19.05;11.98;;;9.70;99.90;;;8.27;97.01;100729.44;3500686;40;103077;-39
2021/05/18 02:26:09;;;;;;;19.45;11.50;;;9.80;99.90;;;8.34;97.05;100730.31;3509052;40;104175;-39
2021/05/18 02:28:44;;;;;;;19.05;11.00;;;9.80;99.90;;;8.33;97.15;100737.63;3493648;40;102400;-38
2021/05/18 02:31:13;;;;;;;17.10;10.55;;;9.80;99.90;;;8.38;96.92;100731.59;3484555;40;103394;-38
2021/05/18 02:33:48;;;;;;;20.25;10.52;;;9.90;99.90;;;8.38;96.97;100722.63;3508745;40;102492;-38
2021/05/18 02:36:22;;;;;;;15.77;9.20;;;9.90;99.90;;;8.38;96.39;100726.16;3508652;40;103072;-39
2021/05/18 02:38:49;;;;;;;18.00;10.25;;;9.90;99.90;;;8.42;96.86;100729.31;3492550;40;103583;-39
2021/05/18 02:41:20;;;;;;;15.52;9.60;;;9.90;99.90;;;8.39;96.82;100730.56;3508892;40;103029;-39
2021/05/18 02:43:58;;;;;;;14.95;9.73;;;9.90;99.90;;;8.36;96.66;100725.53;3500292;40;102641;-39
2021/05/18 02:51:42;;;;;;;13.50;8.87;;;9.90;99.90;;;8.35;97.18;100734.72;3493781;40;104134;-39
2021/05/18 02:54:13;;;;;;;16.10;9.00;;;9.90;99.90;;;8.37;97.11;100726.38;3492271;40;102188;-39
2021/05/18 02:56:48;;;;;;;14.40;8.38;;;9.90;99.90;;;8.39;97.10;100729.72;3508695;40;102389;-39
2021/05/18 02:59:18;;;;;;;13.77;8.20;;;9.90;99.90;;;8.37;97.08;100735.34;3500642;40;102809;-39
2021/05/18 03:01:54;;;;;;;11.30;7.63;;;9.90;99.90;;;8.39;97.31;100744.16;3500065;40;102375;-38
2021/05/18 03:04:22;;;;;;;12.18;7.00;;;9.90;99.90;;;8.41;97.06;100735.81;3508513;40;104435;-39
2021/05/18 03:06:51;;;;;;;9.50;6.45;;;9.90;99.90;;;8.41;97.25;100738.53;3492181;40;104567;-39
2021/05/18 03:09:21;;;;;;;10.35;6.28;;;9.90;99.90;;;8.37;96.79;100737.25;3500423;40;102337;-39
2021/05/18 03:11:52;;;;;;;9.82;5.72;;;9.90;99.90;;;8.35;97.02;100740.16;3500173;40;103510;-38
2021/05/18 03:14:21;;;;;;;9.32;5.47;;;9.90;99.90;;;8.34;96.92;100738.47;3499563;40;102491;-38
2021/05/18 03:16:49;;;;;;;8.38;5.07;;;9.90;99.90;;;8.35;97.14;100729.28;3508174;40;103987;-39
2021/05/18 03:19:17;;;;;;;9.90;5.15;;;9.80;99.90;;;8.34;97.35;100733.03;3491942;40;102352;-38
2021/05/18 03:21:45;;;;;;;8.82;4.95;;;9.90;99.90;;;8.37;97.25;100732.63;3493347;40;104138;-38
2021/05/18 03:24:14;;;;;;;8.13;4.53;;;9.80;99.90;;;8.37;97.03;100737.25;3493191;40;102167;-38
2021/05/18 03:26:46;;;;;;;9.48;4.70;;;9.80;99.90;;;8.42;96.77;100740.19;3501816;40;103078;-38
2021/05/18 03:34:34;;;;;;;6.57;4.07;;;9.90;99.90;;;8.39;96.96;100738.72;3486279;40;103759;-39
2021/05/18 03:37:12;;;;;;;7.38;4.20;;;9.90;99.90;;;8.40;96.90;100734.13;3509275;40;104232;-39
2021/05/18 03:39:43;;;;;;;6.55;3.90;;;9.90;99.90;;;8.44;96.67;100747.09;3501976;40;103403;-38
2021/05/18 04:03:25;;;;;;;6.85;4.47;;;9.90;99.90;;;8.42;97.08;100756.50;3493866;40;103271;-38
2021/05/18 04:18:45;;;;;;;7.18;4.38;;;9.90;99.90;;;8.47;97.74;100754.84;3510404;40;102197;-39
2021/05/18 04:23:51;;;;;;;;;;;10.00;99.90;;;8.49;97.96;100760.09;3501440;40;105017;-38
2021/05/18 04:52:35;;;;;;;9.82;4.95;;;10.10;99.90;;;8.72;97.74;100769.88;3501596;40;102367;-39
2021/05/18 04:58:56;;;;;;;11.95;6.13;;;10.20;99.90;;;8.80;97.83;100771.59;3501594;40;103138;-39
2021/05/18 05:08:26;;;;;;;11.55;5.57;;;10.40;99.90;;;8.94;96.51;100788.81;3501395;40;103246;-38
2021/05/18 05:15:58;;;;;;;11.73;6.18;;;10.50;99.90;;;9.11;95.67;100786.59;3508532;40;103134;-38
2021/05/18 05:18:26;;;;;;;;;;;10.60;99.90;;;9.18;95.61;100790.16;3501442;40;103932;-39
2021/05/18 05:20:54;;;;;;;11.13;6.40;;;10.60;99.90;;;9.18;95.83;100796.47;3500533;40;104122;-38
2021/05/18 05:23:22;;;;;;;13.88;6.93;;;10.60;99.90;;;9.21;95.91;100787.03;3492671;40;102154;-37
2021/05/18 05:25:49;;;;;;;14.25;6.78;;;10.60;99.90;;;9.28;96.28;100793.34;3500619;40;103496;-38
2021/05/18 05:28:17;;;;;;;16.05;6.88;;;10.70;99.90;;;9.30;95.87;100788.53;3508896;40;102287;-39
2021/05/18 05:30:45;;;;;;;15.43;6.97;;;10.70;99.90;;;9.42;95.27;100799.69;3509606;40;104780;-38
2021/05/18 05:33:13;;;;;;;12.68;6.05;;;10.80;99.90;;;9.39;94.58;100793.78;3509021;40;102382;-38
2021/05/18 05:35:41;;;;;;;12.77;6.53;;;10.80;99.90;;;9.43;94.63;100789.59;3508474;40;103202;-38
2021/05/18 05:38:08;;;;;;;13.60;7.30;;;10.80;99.90;;;9.49;95.13;100802.41;3508755;40;102379;-38
2021/05/18 05:40:51;;;;;;;13.05;6.75;;;10.90;99.90;;;9.51;94.92;100808.47;3501778;40;103144;-39
2021/05/18 05:43:19;;;;;;;16.88;7.50;;;10.90;99.90;;;9.58;94.86;100798.47;3499915;40;102524;-37
2021/05/18 05:45:49;;;;;;;11.90;6.60;;;10.90;99.90;;;9.60;94.47;100800.97;3509020;40;104126;-38
2021/05/18 05:48:19;;;;;;;10.15;6.05;;;11.00;99.90;;;9.65;94.66;100795.72;3509727;40;102366;-38
2021/05/18 05:50:49;;;;;;;14.70;7.65;;;11.00;99.90;;;9.75;94.79;100800.78;3509897;40;103099;-39
2021/05/18 05:53:16;;;;;;;15.50;7.45;;;11.10;99.90;;;9.83;95.34;100795.13;3500202;40;102881;-38
2021/05/18 05:55:44;;;;;;;15.45;7.28;;;11.20;99.90;;;9.91;94.59;100805.81;3508406;40;102298;-39
2021/05/18 05:58:12;;;;;;;14.95;7.78;;;11.20;99.90;;;9.92;94.40;100804.78;3508802;40;102480;-39
2021/05/18 06:00:40;;;;;;;15.00;7.68;;;11.30;99.90;;;9.99;93.99;100815.69;3501064;40;103116;-39
2021/05/18 06:03:07;;;;;;;14.73;7.35;;;11.30;99.90;;;10.01;93.95;100816.31;3492029;40;105263;-39
2021/05/18 06:05:35;;;;;;;12.23;7.25;;;11.40;99.90;;;10.00;93.15;100808.34;3508507;40;103161;-39
2021/05/18 06:08:03;;;;;;;13.48;7.63;;;11.40;99.90;;;10.03;92.88;100810.63;3500604;40;103342;-39
2021/05/18 06:10:34;;;;;;;12.82;7.68;;;11.40;99.90;;;10.12;92.93;100817.59;3500459;40;104183;-38
2021/05/18 06:34:19;;;;;;;16.93;9.03;;;12.00;99.90;;;10.72;90.31;100822.16;3509378;40;102837;-39
2021/05/18 06:49:50;;;;;;;16.88;8.98;;;12.00;99.90;;;10.71;89.40;100834.13;3509403;40;103160;-39
2021/05/18 06:52:18;;;;;;;17.92;9.65;;;12.10;99.90;;;10.75;88.23;100843.56;3508408;40;103207;-39
2021/05/18 06:54:45;;;;;;;15.35;9.45;;;12.10;99.90;;;10.76;88.75;100842.50;3508040;40;104106;-39
2021/05/18 06:57:13;;;;;;;19.38;10.05;;;12.10;99.90;;;10.78;88.32;100854.03;3509658;40;103175;-39
2021/05/18 07:02:17;;;;;;;17.40;9.60;;;12.10;99.90;;;11.05;89.74;100850.41;3508868;40;103187;-38
2021/05/18 07:04:46;;;;;;;18.77;10.23;;;12.30;99.90;;;11.19;89.76;100859.41;3499991;40;102869;-39
2021/05/18 07:07:18;;;;;;;20.30;10.18;;;12.40;99.90;;;11.32;89.31;100862.06;3509643;40;102202;-39
2021/05/18 07:09:47;;;;;;;19.08;11.32;;;12.50;99.90;;;11.40;87.85;100858.25;3508243;40;102334;-39
2021/05/18 07:12:14;;;;;;;20.48;11.65;;;12.60;99.90;;;11.44;87.64;100858.66;3508344;40;104991;-39
2021/05/18 07:14:42;;;;;;;18.50;11.38;;;12.70;99.90;;;11.47;86.89;100867.25;3625728;22;102561;-40
2021/05/18 07:17:09;;;;;;;19.90;11.53;;;12.70;99.90;;;11.52;87.13;100858.41;3480281;40;105632;-40
2021/05/18 07:19:37;;;;;;;20.38;11.88;;;12.70;99.90;;;11.49;85.99;100869.78;3489921;40;102811;-40
2021/05/18 07:22:07;;;;;;;19.20;11.68;;;12.70;99.90;;;11.65;86.65;100869.25;3480524;40;102265;-40
2021/05/18 07:24:35;;;;;;;18.70;11.13;;;12.90;99.90;;;11.86;85.70;100871.88;3480370;40;103785;-40
2021/05/18 07:27:03;;;;;;;17.50;10.25;;;13.00;99.90;;;11.80;83.75;100870.88;3489724;40;102301;-40
2021/05/18 07:29:31;;;;;;;17.50;10.40;;;13.00;99.90;;;11.79;83.90;100869.19;3488297;40;102483;-40
2021/05/18 07:31:59;;;;;;;16.35;10.05;;;13.00;99.90;;;11.81;83.92;100875.28;3489293;40;102489;-40
2021/05/18 07:34:26;;;;;;;18.67;11.25;;;13.00;99.90;;;11.91;84.13;100886.56;3488584;40;103272;-40
2021/05/18 07:36:54;;;;;;;22.00;11.07;;;13.10;99.90;;;12.02;84.08;100881.50;3496157;40;104362;-40
2021/05/18 07:39:22;;;;;;;16.88;10.75;;;13.20;99.90;;;12.01;82.14;100893.47;3496123;40;102479;-40
2021/05/18 07:41:51;;;;;;;20.88;10.80;;;13.20;99.90;;;11.93;81.50;100889.06;3488216;40;105232;-40
2021/05/18 07:44:18;;;;;;;15.32;9.70;;;13.20;99.90;;;11.82;81.83;100887.88;3488727;40;102395;-40
2021/05/18 07:46:46;;;;;;;20.13;10.98;;;13.20;99.90;;;11.68;82.65;100883.56;3488601;40;102285;-40
2021/05/18 07:49:24;;;;;;;19.42;10.95;;;13.10;99.90;;;11.70;82.62;100890.47;3496503;40;102411;-40
2021/05/18 07:59:13;;;;;;;16.10;10.65;;;13.00;99.90;;;11.78;83.45;100883.91;3495643;40;103292;-40
2021/05/18 08:05:18;;;;;;;20.25;12.32;;;13.30;99.90;;;12.14;80.87;100885.16;3487820;40;102395;-40
2021/05/18 08:07:49;;;;;;;17.35;11.65;;;13.40;99.90;;;12.11;80.72;100887.53;3490750;40;102329;-40
2021/05/18 08:10:22;;;;;;;16.80;10.73;;;13.40;99.90;;;12.17;81.30;100881.16;3497596;40;102471;-40
2021/05/18 08:12:49;;;;;;;16.88;10.73;;;13.40;99.90;;;12.23;82.62;100883.00;3497342;40;104295;-40
2021/05/18 09:37:03;;;;;;;13.20;8.88;;;15.80;99.90;;;14.46;69.00;100876.53;3489509;40;103544;-40
2021/05/18 09:49:28;;;;;;;11.52;8.25;;;15.70;99.90;;;14.93;67.57;100878.47;3490765;40;104078;-41
2021/05/18 10:17:20;;;;;;;10.98;7.13;;;17.30;99.90;;;16.52;62.89;100879.03;3490314;40;102705;-41
2021/05/18 10:22:01;;;;;;;9.20;5.72;;;17.80;99.90;;;17.11;54.35;100882.38;3489268;40;105023;-41
2021/05/18 10:35:33;;;;;;;7.28;4.25;;;18.50;99.90;;;17.91;54.43;100879.16;3496892;40;102395;-41
2021/05/18 10:38:07;;;;;;;6.55;4.00;;;18.80;99.90;;;17.89;52.86;100878.59;3490403;40;104101;-39
2021/05/18 10:40:39;;;;;;;5.93;4.32;;;18.80;99.90;;;17.85;55.48;100874.69;3489942;40;102775;-41
2021/05/18 10:43:20;;;;;;;6.85;4.78;;;18.80;99.90;;;17.67;53.90;100884.97;3490421;40;102185;-41
2021/05/18 10:46:00;;;;;;;7.70;4.97;;;18.70;99.90;;;17.30;55.63;100882.06;3489823;40;102405;-41
2021/05/18 10:48:39;;;;;;;6.53;5.00;;;18.50;99.90;;;17.29;54.46;100880.38;3490025;40;103100;-42
2021/05/18 10:51:43;;;;;;;9.40;6.22;;;18.40;99.90;;;17.26;52.39;100873.47;3489935;40;103337;-41
2021/05/18 10:54:31;;;;;;;9.38;6.20;;;18.30;99.90;;;17.29;56.33;100892.25;3489378;40;102417;-42
2021/05/18 10:57:20;;;;;;;11.40;6.68;;;18.30;99.90;;;17.48;53.13;100887.25;3490291;40;102416;-41
2021/05/18 10:59:55;;;;;;;10.80;6.10;;;18.50;99.90;;;17.39;51.03;100886.88;3496978;40;104189;-41
2021/05/18 11:02:34;;;;;;;8.00;5.68;;;18.40;99.80;;;17.46;54.10;100881.16;3489061;40;102872;-41
2021/05/18 11:05:06;;;;;;;8.82;5.28;;;18.50;99.90;;;17.81;50.59;100888.16;3488740;40;102901;-41
2021/05/18 11:07:39;;;;;;;7.75;5.63;;;18.60;99.90;;;18.00;51.30;100873.16;3489943;40;102207;-41
2021/05/18 11:10:14;;;;;;;8.43;5.70;;;18.80;99.90;;;18.02;53.13;100882.03;3489370;40;103238;-41
2021/05/18 11:12:47;;;;;;;8.98;6.15;;;18.90;99.90;;;18.25;50.79;100892.75;3488838;40;103619;-41
2021/05/18 11:15:19;;;;;;;8.02;5.55;;;19.10;98.80;;;18.50;53.52;100882.19;3489632;40;104065;-41
2021/05/18 11:17:53;;;;;;;8.50;4.93;;;19.40;99.90;;;18.72;48.19;100882.06;3489147;40;102848;-41
2021/05/18 11:20:35;;;;;;;5.95;4.80;;;19.50;97.70;;;19.00;45.87;100884.75;3489921;40;102268;-41
2021/05/18 11:23:23;;;;;;;9.45;5.10;;;19.70;94.80;;;19.02;47.52;100883.38;3489619;40;102349;-41
2021/05/18 11:26:07;;;;;;;6.40;4.87;;;19.80;97.20;;;19.00;49.79;100893.88;3490717;40;102461;-41
2021/05/18 11:28:37;;;;;;;6.15;4.32;;;19.80;99.20;;;19.12;43.34;100879.84;3488535;40;102405;-41
2021/05/18 11:31:13;;;;;;;6.18;4.07;;;20.00;90.70;;;19.32;47.70;100881.03;3489731;40;103369;-41
2021/05/18 11:33:47;;;;;;;7.30;4.68;;;20.10;95.10;;;19.20;45.65;100884.03;3488284;40;102547;-41
2021/05/18 11:36:18;;;;;;;6.53;5.00;;;20.20;93.90;;;18.97;44.40;100883.31;3489451;40;105020;-41
2021/05/18 11:39:07;;;;;;;6.40;5.00;;;20.10;90.50;;;18.90;46.72;100877.22;3488626;40;102919;-41
2021/05/18 11:41:38;;;;;;;;;;;20.00;95.30;;;18.86;49.62;100889.91;3481932;40;104514;-41
2021/05/18 11:44:09;;;;;;;10.40;5.60;;;19.90;97.90;;;18.68;50.52;100889.22;3490298;40;102631;-41
2021/05/18 11:46:51;;;;;;;7.45;5.28;;;19.70;99.90;;;18.51;49.97;100892.97;3490438;40;103158;-41
2021/05/18 11:49:19;;;;;;;9.23;6.50;;;19.50;98.40;;;17.90;48.22;100884.94;3490890;40;104271;-41
2021/05/18 11:51:58;;;;;;;9.02;5.93;;;19.30;95.30;;;17.81;51.77;100881.81;3497501;40;103125;-42
2021/05/18 11:54:31;;;;;;;7.70;5.90;;;19.10;99.60;;;18.19;52.98;100882.75;3490574;40;102279;-40
2021/05/18 11:57:01;;;;;;;9.40;6.03;;;19.20;99.90;;;18.20;55.56;100880.84;3491711;40;102313;-41
2021/05/18 11:59:28;;;;;;;8.77;5.50;;;19.10;99.90;;;18.17;52.89;100884.94;3489492;40;104228;-41
2021/05/18 12:02:03;;;;;;;8.45;5.95;;;19.10;99.90;;;17.93;50.66;100884.44;3489767;40;104054;-41
2021/05/18 12:04:37;;;;;;;8.52;6.18;;;19.00;99.30;;;17.88;51.33;100892.63;3489685;40;102582;-42
2021/05/18 12:07:08;;;;;;;8.05;5.82;;;18.90;99.90;;;17.65;50.14;100889.91;3497542;40;104300;-41
2021/05/18 12:09:40;;;;;;;10.23;5.70;;;18.70;98.70;;;17.52;52.04;100887.56;3490918;40;103276;-42
2021/05/18 12:12:11;;;;;;;8.52;5.63;;;18.50;99.90;;;17.17;53.13;100910.81;3490024;40;103343;-41
2021/05/18 12:14:50;;;;;;;7.55;4.38;;;18.40;99.90;;;16.28;52.76;100927.88;3490403;40;102523;-40
2021/05/18 12:17:31;;;;;;;5.60;3.88;;;17.80;99.60;;;15.78;56.30;100919.28;3490263;40;102221;-40
2021/05/18 12:20:01;;;;;;;5.88;4.25;;;17.30;99.90;;;15.37;60.64;100926.66;3489703;40;102419;-41
2021/05/18 12:22:29;;;;;;;5.05;3.67;;;16.90;99.90;;;14.60;57.64;100942.22;3490670;40;103398;-40
2021/05/18 12:24:57;;;;;;;6.05;4.15;;;16.40;99.90;;;14.15;63.76;100940.75;3489209;40;103573;-40
2021/05/18 12:27:25;;;;;;;6.38;3.53;;;15.90;99.90;;;13.74;63.90;100935.84;3497192;40;104947;-40
2021/05/18 12:29:58;;;;;;;5.28;3.00;;;15.40;99.90;;;13.54;64.69;100944.34;3489889;40;102518;-40
2021/05/18 12:32:30;;;;;;;5.50;3.03;;;15.00;99.90;;;13.34;65.42;100945.38;3489809;40;102329;-40
2021/05/18 12:35:20;;;;;;;5.18;2.83;;;14.80;99.90;;;13.29;66.70;100939.75;3490490;40;102397;-40
2021/05/18 12:37:51;;;;;;;4.57;2.80;;;14.60;99.90;;;13.48;65.46;100943.34;3497062;40;102368;-40
2021/05/18 12:40:43;;;;;;;5.20;2.88;;;14.60;99.90;;;13.87;65.17;100943.06;3491065;40;102666;-40
2021/05/18 12:43:21;;;;;;;4.63;2.95;;;14.90;99.90;;;14.37;63.60;100946.56;3497510;40;103302;-40
2021/05/18 12:46:09;;;;;;;5.13;3.30;;;15.20;99.90;;;14.40;66.37;100943.34;3490282;40;102310;-41
2021/05/18 12:48:41;;;;;;;4.60;3.40;;;15.40;99.90;;;14.55;58.33;100940.16;3490930;40;103133;-40
2021/05/18 12:51:21;;;;;;;5.35;3.63;;;15.70;99.90;;;14.74;61.06;100946.41;3497395;40;102516;-40
2021/05/18 12:54:02;;;;;;;4.93;3.58;;;15.80;99.90;;;14.73;61.46;100935.69;3489179;40;104026;-40
2021/05/18 12:56:32;;;;;;;6.10;3.83;;;15.90;99.90;;;14.94;60.11;100939.75;3497451;40;103019;-41
2021/05/18 12:59:10;;;;;;;5.70;3.42;;;16.10;99.90;;;15.48;61.42;100933.22;3497530;40;102236;-40
2021/05/18 13:01:48;;;;;;;4.55;3.10;;;16.50;99.90;;;15.65;56.95;100934.16;3489438;40;105190;-41
2021/05/18 13:04:16;;;;;;;5.10;3.20;;;16.60;99.90;;;15.80;56.03;100938.25;3496198;40;103293;-40
2021/05/18 13:06:48;;;;;;;6.07;3.78;;;16.80;99.90;;;15.81;58.26;100939.94;3490697;40;102243;-42
2021/05/18 13:09:19;;;;;;;5.03;3.60;;;16.90;99.90;;;15.80;57.74;100936.34;3490667;40;102450;-40
2021/05/18 13:14:24;;;;;;;4.40;3.10;;;17.10;99.90;;;16.38;53.64;100930.00;3540714;23;103152;-39
2021/05/18 13:17:05;;;;;;;5.97;3.58;;;17.40;99.90;;;16.38;56.73;100928.09;3528817;39;102894;-39
2021/05/18 13:19:32;;;;;;;6.63;3.50;;;17.60;99.90;;;16.13;54.57;100924.88;3528927;39;103529;-39
2021/05/18 13:22:01;;;;;;;4.45;3.33;;;17.40;99.90;;;15.87;54.84;100922.44;3528717;39;102673;-38
2021/05/18 13:27:08;;;;;;;5.53;3.35;;;17.20;99.90;;;15.75;58.09;100919.72;3528773;39;104061;-38
2021/05/18 13:29:37;;;;;;;4.65;3.03;;;17.10;99.90;;;15.84;57.16;100920.19;3537055;39;103282;-39
2021/05/18 13:32:05;;;;;;;4.25;2.97;;;17.10;99.90;;;16.16;57.53;100903.19;3520491;39;102472;-39
2021/05/18 13:34:40;;;;;;;4.63;3.17;;;17.30;99.90;;;16.39;53.24;100913.22;3521100;39;104142;-38
2021/05/18 13:37:08;;;;;;;5.95;2.45;;;17.60;99.90;;;16.42;51.97;100911.88;3529926;39;102290;-39
2021/05/18 13:39:36;;;;;;;5.25;2.50;;;17.60;99.90;;;16.67;52.13;100894.94;3528654;39;104380;-40
2021/05/18 13:42:04;;;;;;;6.40;3.10;;;17.70;99.90;;;16.71;52.03;100922.00;3528982;39;102262;-39
2021/05/18 13:44:32;;;;;;;3.97;2.60;;;17.80;99.90;;;16.94;55.46;100916.28;3528283;39;103202;-39
2021/05/18 13:47:00;;;;;;;3.53;2.65;;;18.00;99.90;;;17.42;56.05;100924.13;3529111;39;102572;-41
2021/05/18 13:49:28;;;;;;;5.70;2.75;;;18.30;99.90;;;17.68;52.46;100917.00;3529024;39;103379;-39
2021/05/18 13:51:57;;;;;;;4.70;2.72;;;18.50;99.90;;;17.36;48.69;100923.22;3528917;39;102431;-39
2021/05/18 13:54:32;;;;;;;4.53;2.65;;;18.50;96.60;;;17.59;49.96;100924.06;3520714;39;103992;-38
2021/05/18 13:57:00;;;;;;;3.15;1.92;;;18.70;99.00;;;17.64;47.29;100921.34;3528810;39;102430;-38
2021/05/18 13:59:28;;;;;;;4.03;2.10;;;18.70;96.20;;;17.79;44.75;100925.41;3528603;39;104294;-39
2021/05/18 14:01:58;;;;;;;4.18;2.08;;;18.80;91.80;;;17.91;46.80;100926.06;3530111;39;102756;-39
2021/05/18 14:04:26;;;;;;;3.22;2.28;;;19.10;95.30;;;17.57;44.75;100926.25;3526701;39;105294;-39
2021/05/18 14:09:37;;;;;;;4.40;2.40;;;18.90;94.80;;;17.81;49.03;100931.50;3528894;39;103173;-39
2021/05/18 14:12:07;;;;;;;4.32;2.63;;;18.90;97.80;;;17.95;45.99;100927.22;3528620;39;102301;-39
2021/05/18 14:14:34;;;;;;;4.25;2.58;;;18.90;93.80;;;18.27;50.33;100920.13;3536431;39;102493;-41
2021/05/18 14:17:02;;;;;;;4.82;2.85;;;19.10;99.40;;;18.05;44.94;100912.72;3512772;39;103274;-39
2021/05/18 14:19:29;;;;;;;3.78;2.58;;;19.10;91.00;;;18.36;48.94;100914.94;3528569;39;102290;-40
2021/05/18 14:21:57;;;;;;;6.47;2.90;;;19.30;97.60;;;18.53;48.87;100898.22;3528680;39;103165;-39
2021/05/18 14:24:36;;;;;;;5.32;3.10;;;19.40;98.00;;;18.70;47.67;100914.66;3519879;39;102213;-39
2021/05/18 14:27:09;;;;;;;3.60;2.60;;;19.50;96.20;;;18.70;48.59;100922.94;3528391;39;102445;-39
2021/05/18 14:29:37;;;;;;;4.18;2.90;;;19.50;96.40;;;18.44;44.72;100928.25;3528645;39;102785;-39
2021/05/18 14:32:04;;;;;;;4.85;3.30;;;19.30;93.20;;;18.43;48.09;100926.59;3520507;39;102751;-39
2021/05/18 14:34:32;;;;;;;4.65;3.13;;;19.30;96.40;;;18.42;47.94;100927.69;3528118;39;103043;-39
2021/05/18 14:36:59;;;;;;;;;;;19.20;96.10;;;18.57;50.78;100927.00;3530180;39;102836;-39
2021/05/18 14:39:47;;;;;;;3.65;3.05;;;19.40;99.90;;;18.71;44.50;100924.63;3529949;39;103890;-39
2021/05/18 14:44:53;;;;;;;5.65;3.10;;;19.70;93.20;;;19.37;44.76;100917.84;3529038;39;102212;-39
2021/05/18 14:47:24;;;;;;;4.10;2.80;;;20.00;93.20;;;19.66;41.35;100922.09;3520118;39;102937;-39
2021/05/18 14:57:44;;;;;;;4.57;2.70;;;20.60;80.80;;;20.18;42.40;100913.94;3529424;39;102367;-39
2021/05/18 15:00:13;;;;;;;;;;;20.70;85.80;;;19.80;39.43;100920.50;3529772;39;102748;-39
2021/05/18 15:02:40;;;;;;;4.33;2.30;;;20.80;73.90;;;19.70;40.74;100920.44;3527673;39;102399;-39
2021/05/18 15:05:10;;;;;;;4.80;2.95;;;20.70;75.90;;;19.17;39.12;100918.56;3527874;39;102391;-39
2021/05/18 15:07:42;;;;;;;5.72;3.10;;;20.30;71.30;;;18.78;40.61;100925.22;3527982;39;103830;-39
2021/05/18 15:10:12;;;;;;;3.55;2.50;;;20.00;73.90;;;18.65;43.20;100933.97;3529348;39;103174;-39
2021/05/18 15:12:39;;;;;;;3.97;2.60;;;19.70;81.00;;;18.35;46.98;100935.38;3528282;39;102371;-39
2021/05/18 15:15:08;;;;;;;;;;;19.40;92.10;;;18.07;42.77;100934.56;3520596;39;104113;-38
2021/05/18 15:17:36;;;;;;;3.90;2.60;;;19.10;84.10;;;17.61;48.67;100948.63;3530393;39;102199;-39
2021/05/18 15:20:05;;;;;;;;;;;18.70;94.80;;;17.41;46.62;100950.03;3530889;39;103139;-38
2021/05/18 15:22:34;;;;;;;2.20;1.60;;;18.60;93.20;;;16.98;44.18;100946.97;3530378;39;102788;-38
2021/05/18 15:25:02;;;;;;;2.92;1.50;;;18.30;87.30;;;16.61;45.84;100952.94;3529995;39;104368;-39
2021/05/18 15:27:30;;;;;;;4.20;1.60;;;17.90;90.70;;;16.27;50.69;100953.75;3529509;39;102865;-39
2021/05/18 15:29:57;;;;;;;4.55;2.30;;;17.60;97.40;;;15.99;52.33;100962.88;3529193;39;103056;-38
2021/05/18 15:32:25;;;;;;;4.18;2.35;;;17.30;99.40;;;15.68;54.48;100952.06;3521068;39;102259;-39
2021/05/18 15:34:53;;;;;;;4.53;2.55;;;17.10;99.90;;;15.33;56.97;100959.28;3520560;39;103551;-39